sensor_id;sensor_type;location;lat;lon;timestamp;temperature;humidity
24011;DHT22;12217;50.792;4.372;2023-05-29T00:01:32;18.30;99.90
24011;DHT22;12217;50.792;4.372;2023-05-29T00:03:57;18.30;99.90
24011;DHT22;12217;50.792;4.372;2023-05-29T00:06:24;18.40;99.90
24011;DHT22;12217;50.792;4.372;2023-05-29T00:08:49;18.40;99.90
24011;DHT22;12217;50.792;4.372;2023-05-29T00:11:15;18.40;99.90
24011;DHT22;12217;50.792;4.372;2023-05-29T00:13:41;18.30;99.90
24011;DHT22;12217;50.792;4.372;2023-05-29T00:16:07;18.20;99.90
24011;DHT22;12217;50.792;4.372;2023-05-29T00:18:34;18.20;99.90
24011;DHT22;12217;50.792;4.372;2023-05-29T00:21:00;18.20;99.90
24011;DHT22;12217;50.792;4.372;2023-05-29T00:23:26;18.20;99.90
24011;DHT22;12217;50.792;4.372;2023-05-29T00:25:51;18.10;99.90
24011;DHT22;12217;50.792;4.372;2023-05-29T00:28:17;17.90;99.90
24011;DHT22;12217;50.792;4.372;2023-05-29T00:30:42;17.80;99.90
24011;DHT22;12217;50.792;4.372;2023-05-29T00:33:08;17.90;99.90
24011;DHT22;12217;50.792;4.372;2023-05-29T00:35:33;17.90;99.90
24011;DHT22;12217;50.792;4.372;2023-05-29T00:37:59;17.90;99.90
24011;DHT22;12217;50.792;4.372;2023-05-29T00:40:25;18.00;99.90
24011;DHT22;12217;50.792;4.372;2023-05-29T00:42:51;17.90;99.90
24011;DHT22;12217;50.792;4.372;2023-05-29T00:45:17;17.70;99.90
24011;DHT22;12217;50.792;4.372;2023-05-29T00:47:42;17.60;99.90
24011;DHT22;12217;50.792;4.372;2023-05-29T00:50:11;17.70;99.90
24011;DHT22;12217;50.792;4.372;2023-05-29T00:52:44;17.60;99.90
24011;DHT22;12217;50.792;4.372;2023-05-29T00:55:11;17.60;99.90
24011;DHT22;12217;50.792;4.372;2023-05-29T00:57:37;17.60;99.90
24011;DHT22;12217;50.792;4.372;2023-05-29T01:00:05;17.50;99.90
24011;DHT22;12217;50.792;4.372;2023-05-29T01:02:36;17.30;99.90
24011;DHT22;12217;50.792;4.372;2023-05-29T01:05:03;17.30;99.90
24011;DHT22;12217;50.792;4.372;2023-05-29T01:07:29;17.30;99.90
24011;DHT22;12217;50.792;4.372;2023-05-29T01:09:54;17.30;99.90
24011;DHT22;12217;50.792;4.372;2023-05-29T01:12:32;17.10;99.90
24011;DHT22;12217;50.792;4.372;2023-05-29T01:20:47;17.00;99.90
24011;DHT22;12217;50.792;4.372;2023-05-29T01:23:37;16.90;99.90
24011;DHT22;12217;50.792;4.372;2023-05-29T01:26:11;16.80;99.90
24011;DHT22;12217;50.792;4.372;2023-05-29T01:28:46;16.70;99.90
24011;DHT22;12217;50.792;4.372;2023-05-29T01:31:13;16.80;99.90
24011;DHT22;12217;50.792;4.372;2023-05-29T01:33:40;16.60;99.90
24011;DHT22;12217;50.792;4.372;2023-05-29T01:36:08;16.40;99.90
24011;DHT22;12217;50.792;4.372;2023-05-29T01:38:35;16.30;99.90
24011;DHT22;12217;50.792;4.372;2023-05-29T01:41:01;16.30;99.90
24011;DHT22;12217;50.792;4.372;2023-05-29T01:43:26;16.30;99.90
24011;DHT22;12217;50.792;4.372;2023-05-29T01:45:53;16.30;99.90
24011;DHT22;12217;50.792;4.372;2023-05-29T01:48:19;16.30;99.90
24011;DHT22;12217;50.792;4.372;2023-05-29T01:50:45;16.30;99.90
24011;DHT22;12217;50.792;4.372;2023-05-29T01:53:11;16.20;99.90
24011;DHT22;12217;50.792;4.372;2023-05-29T01:55:37;16.30;99.90
24011;DHT22;12217;50.792;4.372;2023-05-29T01:58:03;16.40;99.90
24011;DHT22;12217;50.792;4.372;2023-05-29T02:00:29;16.20;99.90
24011;DHT22;12217;50.792;4.372;2023-05-29T02:02:55;16.20;99.90
24011;DHT22;12217;50.792;4.372;2023-05-29T02:05:21;16.10;99.90
24011;DHT22;12217;50.792;4.372;2023-05-29T02:07:47;16.10;99.90
24011;DHT22;12217;50.792;4.372;2023-05-29T02:10:12;16.10;99.90
24011;DHT22;12217;50.792;4.372;2023-05-29T02:12:38;16.10;99.90
24011;DHT22;12217;50.792;4.372;2023-05-29T02:15:04;16.10;99.90
24011;DHT22;12217;50.792;4.372;2023-05-29T02:17:30;16.10;99.90
24011;DHT22;12217;50.792;4.372;2023-05-29T02:19:56;16.20;99.90
24011;DHT22;12217;50.792;4.372;2023-05-29T02:22:22;16.00;99.90
24011;DHT22;12217;50.792;4.372;2023-05-29T02:24:47;16.10;99.90
24011;DHT22;12217;50.792;4.372;2023-05-29T02:27:13;15.90;99.90
24011;DHT22;12217;50.792;4.372;2023-05-29T02:29:38;15.90;99.90
24011;DHT22;12217;50.792;4.372;2023-05-29T02:32:04;16.00;99.90
24011;DHT22;12217;50.792;4.372;2023-05-29T02:34:30;15.90;99.90
24011;DHT22;12217;50.792;4.372;2023-05-29T02:36:56;15.90;99.90
24011;DHT22;12217;50.792;4.372;2023-05-29T02:39:22;15.90;99.90
24011;DHT22;12217;50.792;4.372;2023-05-29T02:41:47;15.90;99.90
24011;DHT22;12217;50.792;4.372;2023-05-29T02:44:13;15.80;99.90
24011;DHT22;12217;50.792;4.372;2023-05-29T02:46:38;15.80;99.90
24011;DHT22;12217;50.792;4.372;2023-05-29T02:49:04;15.80;99.90
24011;DHT22;12217;50.792;4.372;2023-05-29T02:51:30;15.70;99.90
24011;DHT22;12217;50.792;4.372;2023-05-29T02:53:57;15.60;99.90
24011;DHT22;12217;50.792;4.372;2023-05-29T02:56:23;15.50;99.90
24011;DHT22;12217;50.792;4.372;2023-05-29T02:58:51;15.60;99.90
24011;DHT22;12217;50.792;4.372;2023-05-29T03:01:17;15.60;99.90
24011;DHT22;12217;50.792;4.372;2023-05-29T03:03:42;15.60;99.90
24011;DHT22;12217;50.792;4.372;2023-05-29T03:06:08;15.70;99.90
24011;DHT22;12217;50.792;4.372;2023-05-29T03:08:35;15.70;99.90
24011;DHT22;12217;50.792;4.372;2023-05-29T03:11:07;15.60;99.90
24011;DHT22;12217;50.792;4.372;2023-05-29T03:13:32;15.50;99.90
24011;DHT22;12217;50.792;4.372;2023-05-29T03:15:59;15.60;99.90
24011;DHT22;12217;50.792;4.372;2023-05-29T03:18:25;15.50;99.90
24011;DHT22;12217;50.792;4.372;2023-05-29T03:20:50;15.40;99.90
24011;DHT22;12217;50.792;4.372;2023-05-29T03:23:16;15.40;99.90
24011;DHT22;12217;50.792;4.372;2023-05-29T03:25:42;15.40;99.90
24011;DHT22;12217;50.792;4.372;2023-05-29T03:28:08;15.30;99.90
24011;DHT22;12217;50.792;4.372;2023-05-29T03:30:33;15.30;99.90
24011;DHT22;12217;50.792;4.372;2023-05-29T03:32:59;15.20;99.90
24011;DHT22;12217;50.792;4.372;2023-05-29T03:35:31;15.10;99.90
24011;DHT22;12217;50.792;4.372;2023-05-29T03:37:57;14.90;99.90
24011;DHT22;12217;50.792;4.372;2023-05-29T03:40:23;15.00;99.90
24011;DHT22;12217;50.792;4.372;2023-05-29T03:42:49;15.00;99.90
24011;DHT22;12217;50.792;4.372;2023-05-29T03:45:14;15.10;99.90
24011;DHT22;12217;50.792;4.372;2023-05-29T03:47:40;15.00;99.90
24011;DHT22;12217;50.792;4.372;2023-05-29T03:50:06;15.00;99.90
24011;DHT22;12217;50.792;4.372;2023-05-29T03:52:32;14.90;99.90
24011;DHT22;12217;50.792;4.372;2023-05-29T03:54:57;15.00;99.90
24011;DHT22;12217;50.792;4.372;2023-05-29T03:57:23;15.00;99.90
24011;DHT22;12217;50.792;4.372;2023-05-29T03:59:48;14.90;99.90
24011;DHT22;12217;50.792;4.372;2023-05-29T04:02:14;14.80;99.90
24011;DHT22;12217;50.792;4.372;2023-05-29T04:04:39;14.90;99.90
24011;DHT22;12217;50.792;4.372;2023-05-29T04:07:05;14.70;99.90
24011;DHT22;12217;50.792;4.372;2023-05-29T04:09:33;14.60;99.90
24011;DHT22;12217;50.792;4.372;2023-05-29T04:12:00;14.60;99.90
24011;DHT22;12217;50.792;4.372;2023-05-29T04:14:28;14.60;99.90
24011;DHT22;12217;50.792;4.372;2023-05-29T04:16:54;14.60;99.90
24011;DHT22;12217;50.792;4.372;2023-05-29T04:19:19;14.50;99.90
24011;DHT22;12217;50.792;4.372;2023-05-29T04:21:46;14.50;99.90
24011;DHT22;12217;50.792;4.372;2023-05-29T04:24:13;14.50;99.90
24011;DHT22;12217;50.792;4.372;2023-05-29T04:26:39;14.60;99.90
24011;DHT22;12217;50.792;4.372;2023-05-29T04:29:07;14.80;99.90
24011;DHT22;12217;50.792;4.372;2023-05-29T04:31:32;14.80;99.90
24011;DHT22;12217;50.792;4.372;2023-05-29T04:33:58;14.80;99.90
24011;DHT22;12217;50.792;4.372;2023-05-29T04:36:26;14.60;99.90
24011;DHT22;12217;50.792;4.372;2023-05-29T04:38:52;14.60;99.90
24011;DHT22;12217;50.792;4.372;2023-05-29T04:41:18;14.60;99.90
24011;DHT22;12217;50.792;4.372;2023-05-29T04:43:44;14.50;99.90
24011;DHT22;12217;50.792;4.372;2023-05-29T04:46:11;14.60;99.90
24011;DHT22;12217;50.792;4.372;2023-05-29T04:48:40;14.60;99.90
24011;DHT22;12217;50.792;4.372;2023-05-29T04:51:09;14.60;99.90
24011;DHT22;12217;50.792;4.372;2023-05-29T04:53:37;14.60;99.90
24011;DHT22;12217;50.792;4.372;2023-05-29T04:56:03;14.80;99.90
24011;DHT22;12217;50.792;4.372;2023-05-29T04:58:28;14.80;99.90
24011;DHT22;12217;50.792;4.372;2023-05-29T05:00:54;14.70;99.90
24011;DHT22;12217;50.792;4.372;2023-05-29T05:03:23;14.60;99.90
24011;DHT22;12217;50.792;4.372;2023-05-29T05:05:51;14.70;99.90
24011;DHT22;12217;50.792;4.372;2023-05-29T05:08:17;14.90;99.90
24011;DHT22;12217;50.792;4.372;2023-05-29T05:10:43;14.90;99.90
24011;DHT22;12217;50.792;4.372;2023-05-29T05:13:08;14.90;99.90
24011;DHT22;12217;50.792;4.372;2023-05-29T05:15:34;15.00;99.90
24011;DHT22;12217;50.792;4.372;2023-05-29T05:18:00;14.80;99.90
24011;DHT22;12217;50.792;4.372;2023-05-29T05:20:25;14.70;99.90
24011;DHT22;12217;50.792;4.372;2023-05-29T05:22:51;14.70;99.90
24011;DHT22;12217;50.792;4.372;2023-05-29T05:25:17;14.80;99.90
24011;DHT22;12217;50.792;4.372;2023-05-29T05:27:42;14.80;99.90
24011;DHT22;12217;50.792;4.372;2023-05-29T05:30:08;14.80;99.90
24011;DHT22;12217;50.792;4.372;2023-05-29T05:32:34;15.00;99.90
24011;DHT22;12217;50.792;4.372;2023-05-29T05:35:00;15.00;99.90
24011;DHT22;12217;50.792;4.372;2023-05-29T05:37:26;15.10;99.90
24011;DHT22;12217;50.792;4.372;2023-05-29T05:39:51;15.10;99.90
24011;DHT22;12217;50.792;4.372;2023-05-29T05:42:19;15.20;99.90
24011;DHT22;12217;50.792;4.372;2023-05-29T05:44:44;15.30;99.90
24011;DHT22;12217;50.792;4.372;2023-05-29T05:47:10;15.20;99.90
24011;DHT22;12217;50.792;4.372;2023-05-29T05:49:36;15.20;99.90
24011;DHT22;12217;50.792;4.372;2023-05-29T05:52:02;15.10;99.90
24011;DHT22;12217;50.792;4.372;2023-05-29T05:54:27;15.10;99.90
24011;DHT22;12217;50.792;4.372;2023-05-29T05:56:53;15.00;99.90
24011;DHT22;12217;50.792;4.372;2023-05-29T05:59:18;15.10;99.90
24011;DHT22;12217;50.792;4.372;2023-05-29T06:01:44;15.10;99.90
24011;DHT22;12217;50.792;4.372;2023-05-29T06:04:09;15.20;99.90
24011;DHT22;12217;50.792;4.372;2023-05-29T06:06:35;15.20;99.90
24011;DHT22;12217;50.792;4.372;2023-05-29T06:09:01;15.10;99.90
24011;DHT22;12217;50.792;4.372;2023-05-29T06:11:26;15.30;99.90
24011;DHT22;12217;50.792;4.372;2023-05-29T06:13:52;15.40;99.90
24011;DHT22;12217;50.792;4.372;2023-05-29T06:16:18;15.50;99.90
24011;DHT22;12217;50.792;4.372;2023-05-29T06:18:44;15.50;99.90
24011;DHT22;12217;50.792;4.372;2023-05-29T06:21:12;15.50;99.90
24011;DHT22;12217;50.792;4.372;2023-05-29T06:23:38;15.60;99.90
24011;DHT22;12217;50.792;4.372;2023-05-29T06:26:04;15.70;99.90
24011;DHT22;12217;50.792;4.372;2023-05-29T06:28:30;15.80;99.90
24011;DHT22;12217;50.792;4.372;2023-05-29T06:30:56;15.90;99.90
24011;DHT22;12217;50.792;4.372;2023-05-29T06:33:21;15.90;99.90
24011;DHT22;12217;50.792;4.372;2023-05-29T06:35:47;16.00;99.90
24011;DHT22;12217;50.792;4.372;2023-05-29T06:38:16;15.80;99.90
24011;DHT22;12217;50.792;4.372;2023-05-29T06:40:42;15.80;99.90
24011;DHT22;12217;50.792;4.372;2023-05-29T06:43:07;15.90;99.90
24011;DHT22;12217;50.792;4.372;2023-05-29T06:45:34;16.00;99.90
24011;DHT22;12217;50.792;4.372;2023-05-29T06:48:00;16.00;99.90
24011;DHT22;12217;50.792;4.372;2023-05-29T06:50:26;15.90;99.90
24011;DHT22;12217;50.792;4.372;2023-05-29T06:52:51;15.90;99.90
24011;DHT22;12217;50.792;4.372;2023-05-29T06:55:17;15.90;99.90
24011;DHT22;12217;50.792;4.372;2023-05-29T06:57:43;15.90;99.90
24011;DHT22;12217;50.792;4.372;2023-05-29T07:00:09;16.00;99.90
24011;DHT22;12217;50.792;4.372;2023-05-29T07:02:36;16.00;99.90
24011;DHT22;12217;50.792;4.372;2023-05-29T07:05:02;16.10;99.90
24011;DHT22;12217;50.792;4.372;2023-05-29T07:07:28;16.30;99.90
24011;DHT22;12217;50.792;4.372;2023-05-29T07:09:54;16.20;99.90
24011;DHT22;12217;50.792;4.372;2023-05-29T07:12:21;16.30;99.90
24011;DHT22;12217;50.792;4.372;2023-05-29T07:14:47;16.30;99.90
24011;DHT22;12217;50.792;4.372;2023-05-29T07:17:14;16.40;99.90
24011;DHT22;12217;50.792;4.372;2023-05-29T07:19:40;16.50;99.90
24011;DHT22;12217;50.792;4.372;2023-05-29T07:22:05;16.50;99.90
24011;DHT22;12217;50.792;4.372;2023-05-29T07:24:31;16.60;99.90
24011;DHT22;12217;50.792;4.372;2023-05-29T07:26:57;16.60;99.90
24011;DHT22;12217;50.792;4.372;2023-05-29T07:29:23;16.80;99.90
24011;DHT22;12217;50.792;4.372;2023-05-29T07:31:52;16.90;99.90
24011;DHT22;12217;50.792;4.372;2023-05-29T07:34:17;16.80;99.90
24011;DHT22;12217;50.792;4.372;2023-05-29T07:37:03;16.80;99.90
24011;DHT22;12217;50.792;4.372;2023-05-29T07:39:31;17.00;99.90
24011;DHT22;12217;50.792;4.372;2023-05-29T07:41:57;17.10;99.90
24011;DHT22;12217;50.792;4.372;2023-05-29T07:44:22;17.20;99.90
24011;DHT22;12217;50.792;4.372;2023-05-29T07:46:48;17.10;99.90
24011;DHT22;12217;50.792;4.372;2023-05-29T07:49:14;17.10;99.90
24011;DHT22;12217;50.792;4.372;2023-05-29T07:51:40;17.10;99.90
24011;DHT22;12217;50.792;4.372;2023-05-29T07:54:06;17.00;99.90
24011;DHT22;12217;50.792;4.372;2023-05-29T07:56:32;17.10;99.90
24011;DHT22;12217;50.792;4.372;2023-05-29T07:58:59;17.30;99.90
24011;DHT22;12217;50.792;4.372;2023-05-29T08:01:25;17.40;99.90
24011;DHT22;12217;50.792;4.372;2023-05-29T08:03:51;17.40;99.90
24011;DHT22;12217;50.792;4.372;2023-05-29T08:06:17;17.50;99.90
24011;DHT22;12217;50.792;4.372;2023-05-29T08:08:44;17.60;99.90
24011;DHT22;12217;50.792;4.372;2023-05-29T08:11:10;17.70;99.90
24011;DHT22;12217;50.792;4.372;2023-05-29T08:13:36;17.80;99.90
24011;DHT22;12217;50.792;4.372;2023-05-29T08:16:02;17.90;99.90
24011;DHT22;12217;50.792;4.372;2023-05-29T08:18:31;17.90;99.90
24011;DHT22;12217;50.792;4.372;2023-05-29T08:20:58;17.90;99.90
24011;DHT22;12217;50.792;4.372;2023-05-29T08:23:24;18.00;99.90
24011;DHT22;12217;50.792;4.372;2023-05-29T08:25:50;18.10;99.90
24011;DHT22;12217;50.792;4.372;2023-05-29T08:28:15;18.20;99.90
24011;DHT22;12217;50.792;4.372;2023-05-29T08:30:41;18.20;99.90
24011;DHT22;12217;50.792;4.372;2023-05-29T08:33:07;18.30;99.90
24011;DHT22;12217;50.792;4.372;2023-05-29T08:35:33;18.30;99.90
24011;DHT22;12217;50.792;4.372;2023-05-29T08:37:59;18.30;99.90
24011;DHT22;12217;50.792;4.372;2023-05-29T08:40:25;18.40;99.90
24011;DHT22;12217;50.792;4.372;2023-05-29T08:43:02;18.50;99.90
24011;DHT22;12217;50.792;4.372;2023-05-29T08:45:29;18.50;99.90
24011;DHT22;12217;50.792;4.372;2023-05-29T08:47:57;18.80;99.90
24011;DHT22;12217;50.792;4.372;2023-05-29T08:50:23;18.60;99.90
24011;DHT22;12217;50.792;4.372;2023-05-29T08:52:49;18.60;99.90
24011;DHT22;12217;50.792;4.372;2023-05-29T08:55:15;18.50;99.90
24011;DHT22;12217;50.792;4.372;2023-05-29T08:57:42;18.70;99.90
24011;DHT22;12217;50.792;4.372;2023-05-29T09:00:09;18.90;99.90
24011;DHT22;12217;50.792;4.372;2023-05-29T09:02:41;18.80;99.90
24011;DHT22;12217;50.792;4.372;2023-05-29T09:05:07;18.90;99.90
24011;DHT22;12217;50.792;4.372;2023-05-29T09:07:33;19.00;99.90
24011;DHT22;12217;50.792;4.372;2023-05-29T09:09:59;19.20;99.90
24011;DHT22;12217;50.792;4.372;2023-05-29T09:12:26;19.30;99.90
24011;DHT22;12217;50.792;4.372;2023-05-29T09:14:52;19.20;99.90
24011;DHT22;12217;50.792;4.372;2023-05-29T09:17:17;19.50;99.90
24011;DHT22;12217;50.792;4.372;2023-05-29T09:19:43;19.60;99.90
24011;DHT22;12217;50.792;4.372;2023-05-29T09:22:15;19.50;99.90
24011;DHT22;12217;50.792;4.372;2023-05-29T09:24:50;19.50;99.90
24011;DHT22;12217;50.792;4.372;2023-05-29T09:27:17;19.60;99.90
24011;DHT22;12217;50.792;4.372;2023-05-29T09:29:44;19.80;99.90
24011;DHT22;12217;50.792;4.372;2023-05-29T09:32:20;19.80;99.90
24011;DHT22;12217;50.792;4.372;2023-05-29T09:34:46;19.70;99.90
24011;DHT22;12217;50.792;4.372;2023-05-29T09:37:12;19.70;99.90
24011;DHT22;12217;50.792;4.372;2023-05-29T09:39:45;19.80;99.90
24011;DHT22;12217;50.792;4.372;2023-05-29T09:42:12;19.70;99.90
24011;DHT22;12217;50.792;4.372;2023-05-29T09:44:39;19.70;99.90
24011;DHT22;12217;50.792;4.372;2023-05-29T09:47:05;19.90;99.90
24011;DHT22;12217;50.792;4.372;2023-05-29T09:49:32;20.20;99.90
24011;DHT22;12217;50.792;4.372;2023-05-29T09:51:58;20.30;99.90
24011;DHT22;12217;50.792;4.372;2023-05-29T09:54:27;20.50;99.90
24011;DHT22;12217;50.792;4.372;2023-05-29T09:56:57;20.50;99.90
24011;DHT22;12217;50.792;4.372;2023-05-29T09:59:24;20.50;99.90
24011;DHT22;12217;50.792;4.372;2023-05-29T10:02:00;20.60;99.90
24011;DHT22;12217;50.792;4.372;2023-05-29T10:04:26;20.70;99.90
24011;DHT22;12217;50.792;4.372;2023-05-29T10:06:55;20.80;99.90
24011;DHT22;12217;50.792;4.372;2023-05-29T10:09:23;20.90;99.90
24011;DHT22;12217;50.792;4.372;2023-05-29T10:11:49;21.00;99.90
24011;DHT22;12217;50.792;4.372;2023-05-29T10:14:18;20.90;99.90
24011;DHT22;12217;50.792;4.372;2023-05-29T10:16:49;21.10;99.90
24011;DHT22;12217;50.792;4.372;2023-05-29T10:19:25;21.30;99.90
24011;DHT22;12217;50.792;4.372;2023-05-29T10:21:53;21.50;99.90
24011;DHT22;12217;50.792;4.372;2023-05-29T10:24:20;21.60;99.90
24011;DHT22;12217;50.792;4.372;2023-05-29T10:26:48;21.50;99.90
24011;DHT22;12217;50.792;4.372;2023-05-29T10:34:29;21.60;99.90
24011;DHT22;12217;50.792;4.372;2023-05-29T10:37:27;21.60;99.90
24011;DHT22;12217;50.792;4.372;2023-05-29T10:39:53;21.60;99.90
24011;DHT22;12217;50.792;4.372;2023-05-29T10:45:06;21.90;99.90
24011;DHT22;12217;50.792;4.372;2023-05-29T10:47:32;22.10;99.90
24011;DHT22;12217;50.792;4.372;2023-05-29T10:50:00;22.30;99.90
24011;DHT22;12217;50.792;4.372;2023-05-29T10:52:33;22.40;99.90
24011;DHT22;12217;50.792;4.372;2023-05-29T10:54:58;22.30;99.90
24011;DHT22;12217;50.792;4.372;2023-05-29T10:57:25;22.50;99.90
24011;DHT22;12217;50.792;4.372;2023-05-29T11:00:03;22.60;99.90
24011;DHT22;12217;50.792;4.372;2023-05-29T11:02:31;22.60;99.90
24011;DHT22;12217;50.792;4.372;2023-05-29T11:05:21;22.60;99.90
24011;DHT22;12217;50.792;4.372;2023-05-29T11:07:58;22.60;99.90
24011;DHT22;12217;50.792;4.372;2023-05-29T11:11:00;22.70;99.90
24011;DHT22;12217;50.792;4.372;2023-05-29T11:13:36;22.70;99.90
24011;DHT22;12217;50.792;4.372;2023-05-29T11:16:20;23.00;99.90
24011;DHT22;12217;50.792;4.372;2023-05-29T11:19:07;23.30;99.90
24011;DHT22;12217;50.792;4.372;2023-05-29T11:24:25;23.00;99.90
24011;DHT22;12217;50.792;4.372;2023-05-29T11:26:52;23.00;99.90
24011;DHT22;12217;50.792;4.372;2023-05-29T11:29:23;23.10;99.90
24011;DHT22;12217;50.792;4.372;2023-05-29T11:31:58;23.30;99.90
24011;DHT22;12217;50.792;4.372;2023-05-29T11:34:29;23.70;99.90
24011;DHT22;12217;50.792;4.372;2023-05-29T11:36:58;23.80;99.90
24011;DHT22;12217;50.792;4.372;2023-05-29T11:39:24;23.90;99.60
24011;DHT22;12217;50.792;4.372;2023-05-29T11:41:50;23.80;99.90
24011;DHT22;12217;50.792;4.372;2023-05-29T11:44:17;23.90;99.30
24011;DHT22;12217;50.792;4.372;2023-05-29T11:46:43;24.00;99.90
24011;DHT22;12217;50.792;4.372;2023-05-29T11:49:08;24.20;99.00
24011;DHT22;12217;50.792;4.372;2023-05-29T11:51:34;24.20;99.90
24011;DHT22;12217;50.792;4.372;2023-05-29T11:54:00;24.40;99.90
24011;DHT22;12217;50.792;4.372;2023-05-29T11:56:29;24.20;98.70
24011;DHT22;12217;50.792;4.372;2023-05-29T11:58:58;24.20;98.40
24011;DHT22;12217;50.792;4.372;2023-05-29T12:01:25;24.20;99.20
24011;DHT22;12217;50.792;4.372;2023-05-29T12:03:51;24.30;98.60
24011;DHT22;12217;50.792;4.372;2023-05-29T12:06:31;24.60;99.90
24011;DHT22;12217;50.792;4.372;2023-05-29T12:08:57;24.80;98.10
24011;DHT22;12217;50.792;4.372;2023-05-29T12:11:26;24.90;98.00
24011;DHT22;12217;50.792;4.372;2023-05-29T12:13:58;25.00;98.10
24011;DHT22;12217;50.792;4.372;2023-05-29T12:16:28;25.10;96.50
24011;DHT22;12217;50.792;4.372;2023-05-29T12:18:55;24.90;97.10
24011;DHT22;12217;50.792;4.372;2023-05-29T12:21:21;24.90;97.70
24011;DHT22;12217;50.792;4.372;2023-05-29T12:23:47;25.10;97.10
24011;DHT22;12217;50.792;4.372;2023-05-29T12:26:13;25.10;95.90
24011;DHT22;12217;50.792;4.372;2023-05-29T12:28:46;25.00;95.50
24011;DHT22;12217;50.792;4.372;2023-05-29T12:31:12;25.00;95.00
24011;DHT22;12217;50.792;4.372;2023-05-29T12:33:43;24.90;95.80
24011;DHT22;12217;50.792;4.372;2023-05-29T12:36:11;24.90;94.30
24011;DHT22;12217;50.792;4.372;2023-05-29T12:38:51;25.00;93.80
24011;DHT22;12217;50.792;4.372;2023-05-29T12:41:49;25.00;94.90
24011;DHT22;12217;50.792;4.372;2023-05-29T12:44:15;24.90;95.50
24011;DHT22;12217;50.792;4.372;2023-05-29T12:46:44;24.90;94.40
24011;DHT22;12217;50.792;4.372;2023-05-29T12:49:12;25.00;94.50
24011;DHT22;12217;50.792;4.372;2023-05-29T12:51:41;25.20;94.40
24011;DHT22;12217;50.792;4.372;2023-05-29T12:54:09;25.40;93.80
24011;DHT22;12217;50.792;4.372;2023-05-29T12:56:35;25.60;93.50
24011;DHT22;12217;50.792;4.372;2023-05-29T12:59:01;25.70;93.60
24011;DHT22;12217;50.792;4.372;2023-05-29T13:01:26;25.90;93.90
24011;DHT22;12217;50.792;4.372;2023-05-29T13:03:52;25.90;92.40
24011;DHT22;12217;50.792;4.372;2023-05-29T13:06:18;25.70;91.80
24011;DHT22;12217;50.792;4.372;2023-05-29T13:08:43;25.60;91.60
24011;DHT22;12217;50.792;4.372;2023-05-29T13:11:09;25.60;92.10
24011;DHT22;12217;50.792;4.372;2023-05-29T13:13:34;25.80;92.90
24011;DHT22;12217;50.792;4.372;2023-05-29T13:16:00;25.80;92.30
24011;DHT22;12217;50.792;4.372;2023-05-29T13:18:26;25.90;92.20
24011;DHT22;12217;50.792;4.372;2023-05-29T13:20:51;26.20;91.20
24011;DHT22;12217;50.792;4.372;2023-05-29T13:23:17;26.50;91.20
24011;DHT22;12217;50.792;4.372;2023-05-29T13:25:42;26.50;91.10
24011;DHT22;12217;50.792;4.372;2023-05-29T13:28:08;26.30;90.30
24011;DHT22;12217;50.792;4.372;2023-05-29T13:30:34;26.20;90.80
24011;DHT22;12217;50.792;4.372;2023-05-29T13:32:59;26.20;90.90
24011;DHT22;12217;50.792;4.372;2023-05-29T13:35:25;26.20;90.80
24011;DHT22;12217;50.792;4.372;2023-05-29T13:37:50;26.40;90.40
24011;DHT22;12217;50.792;4.372;2023-05-29T13:40:16;26.70;88.40
24011;DHT22;12217;50.792;4.372;2023-05-29T13:42:42;26.60;89.90
24011;DHT22;12217;50.792;4.372;2023-05-29T13:45:08;26.50;88.50
24011;DHT22;12217;50.792;4.372;2023-05-29T13:47:34;26.40;88.00
24011;DHT22;12217;50.792;4.372;2023-05-29T13:50:00;26.40;89.00
24011;DHT22;12217;50.792;4.372;2023-05-29T13:52:26;26.20;89.70
24011;DHT22;12217;50.792;4.372;2023-05-29T13:54:52;26.20;89.00
24011;DHT22;12217;50.792;4.372;2023-05-29T13:57:18;26.30;89.00
24011;DHT22;12217;50.792;4.372;2023-05-29T13:59:43;26.30;90.10
24011;DHT22;12217;50.792;4.372;2023-05-29T14:02:09;26.50;89.80
24011;DHT22;12217;50.792;4.372;2023-05-29T14:04:35;26.70;87.90
24011;DHT22;12217;50.792;4.372;2023-05-29T14:07:00;26.80;88.60
24011;DHT22;12217;50.792;4.372;2023-05-29T14:09:26;26.40;88.20
24011;DHT22;12217;50.792;4.372;2023-05-29T14:11:59;26.40;88.60
24011;DHT22;12217;50.792;4.372;2023-05-29T14:14:26;26.40;86.30
24011;DHT22;12217;50.792;4.372;2023-05-29T14:16:52;26.50;87.10
24011;DHT22;12217;50.792;4.372;2023-05-29T14:19:18;26.40;87.00
24011;DHT22;12217;50.792;4.372;2023-05-29T14:21:44;26.40;87.20
24011;DHT22;12217;50.792;4.372;2023-05-29T14:24:10;26.60;88.80
24011;DHT22;12217;50.792;4.372;2023-05-29T14:26:36;26.80;84.30
24011;DHT22;12217;50.792;4.372;2023-05-29T14:29:03;26.80;84.60
24011;DHT22;12217;50.792;4.372;2023-05-29T14:31:28;26.60;85.60
24011;DHT22;12217;50.792;4.372;2023-05-29T14:33:54;26.40;85.60
24011;DHT22;12217;50.792;4.372;2023-05-29T14:36:19;26.50;85.80
24011;DHT22;12217;50.792;4.372;2023-05-29T14:38:45;26.50;86.30
24011;DHT22;12217;50.792;4.372;2023-05-29T14:41:11;26.20;85.00
24011;DHT22;12217;50.792;4.372;2023-05-29T14:43:41;26.00;86.50
24011;DHT22;12217;50.792;4.372;2023-05-29T14:46:07;26.10;87.10
24011;DHT22;12217;50.792;4.372;2023-05-29T14:48:33;26.10;87.00
24011;DHT22;12217;50.792;4.372;2023-05-29T14:50:58;26.00;88.10
24011;DHT22;12217;50.792;4.372;2023-05-29T14:53:24;26.10;88.20
24011;DHT22;12217;50.792;4.372;2023-05-29T14:55:50;26.10;87.20
24011;DHT22;12217;50.792;4.372;2023-05-29T14:58:15;26.10;85.20
24011;DHT22;12217;50.792;4.372;2023-05-29T15:00:41;26.00;84.60
24011;DHT22;12217;50.792;4.372;2023-05-29T15:03:06;25.40;85.70
24011;DHT22;12217;50.792;4.372;2023-05-29T15:05:32;25.20;86.90
24011;DHT22;12217;50.792;4.372;2023-05-29T15:07:57;25.10;86.40
24011;DHT22;12217;50.792;4.372;2023-05-29T15:10:25;25.20;87.70
24011;DHT22;12217;50.792;4.372;2023-05-29T15:12:52;25.10;86.60
24011;DHT22;12217;50.792;4.372;2023-05-29T15:15:25;25.20;87.40
24011;DHT22;12217;50.792;4.372;2023-05-29T15:17:51;25.10;88.70
24011;DHT22;12217;50.792;4.372;2023-05-29T15:20:25;25.10;87.20
24011;DHT22;12217;50.792;4.372;2023-05-29T15:22:52;25.10;86.90
24011;DHT22;12217;50.792;4.372;2023-05-29T15:25:19;24.90;87.40
24011;DHT22;12217;50.792;4.372;2023-05-29T15:27:46;25.00;89.30
24011;DHT22;12217;50.792;4.372;2023-05-29T15:30:15;25.00;89.40
24011;DHT22;12217;50.792;4.372;2023-05-29T15:32:42;25.20;87.60
24011;DHT22;12217;50.792;4.372;2023-05-29T15:35:10;25.20;88.80
24011;DHT22;12217;50.792;4.372;2023-05-29T15:37:37;25.10;87.90
24011;DHT22;12217;50.792;4.372;2023-05-29T15:40:03;24.90;87.50
24011;DHT22;12217;50.792;4.372;2023-05-29T15:42:29;24.80;87.20
24011;DHT22;12217;50.792;4.372;2023-05-29T15:44:54;24.70;87.50
24011;DHT22;12217;50.792;4.372;2023-05-29T15:47:20;24.80;86.90